Time;durP1;ratioP1;P1;durP2;ratioP2;P2;SDS_P1;SDS_P2;PMS_P1;PMS_P2;Temp;Humidity;BMP_temperature;BMP_pressure;BME280_temperature;BME280_humidity;BME280_pressure;Samples;Min_cycle;Max_cycle;Signal;HPM_P1;HPM_P2
2023/04/19 00:00:31;;;;;;;9.30;5.45;;;;;;;;;;2073339;28;20298;-91
2023/04/19 00:01:33;;;;;;;7.85;5.80;;;;;;;;;;2068866;28;20402;-91
2023/04/19 00:02:34;;;;;;;7.60;5.65;;;;;;;;;;2065230;28;20052;-91
2023/04/19 00:04:55;;;;;;;6.43;5.13;;;;;;;;;;2290977;23;20046;-89
2023/04/19 00:05:58;;;;;;;7.78;5.43;;;;;;;;;;2075249;28;20081;-90
2023/04/19 00:06:59;;;;;;;8.60;5.80;;;;;;;;;;2066777;28;20043;-90
2023/04/19 00:07:59;;;;;;;8.75;4.90;;;;;;;;;;2064760;28;20022;-90
2023/04/19 00:08:59;;;;;;;8.15;5.22;;;;;;;;;;2072432;28;20108;-91
2023/04/19 00:10:00;;;;;;;6.35;5.20;;;;;;;;;;2071145;28;20437;-91
2023/04/19 00:11:03;;;;;;;7.65;5.10;;;;;;;;;;2070968;28;20161;-90
2023/04/19 00:12:04;;;;;;;7.45;4.93;;;;;;;;;;2071784;28;20087;-91
2023/04/19 00:13:05;;;;;;;6.47;4.60;;;;;;;;;;2072000;28;20108;-90
2023/04/19 00:14:05;;;;;;;7.25;4.50;;;;;;;;;;2063045;28;20526;-90
2023/04/19 00:15:06;;;;;;;6.28;4.65;;;;;;;;;;2065420;28;20312;-91
2023/04/19 00:16:07;;;;;;;8.20;5.30;;;;;;;;;;2073555;28;20050;-90
2023/04/19 00:17:07;;;;;;;6.05;4.85;;;;;;;;;;2073597;28;20025;-90
2023/04/19 00:18:08;;;;;;;6.75;4.63;;;;;;;;;;2082048;28;20037;-90
2023/04/19 00:19:09;;;;;;;6.88;5.35;;;;;;;;;;2073468;28;20026;-90
2023/04/19 00:20:11;;;;;;;8.95;5.05;;;;;;;;;;2073399;28;20053;-90
2023/04/19 00:21:12;;;;;;;7.78;4.90;;;;;;;;;;2076174;28;20022;-90
2023/04/19 00:22:13;;;;;;;6.72;4.63;;;;;;;;;;2071460;28;20406;-91
2023/04/19 00:23:15;;;;;;;9.07;5.45;;;;;;;;;;2071588;28;20026;-90
2023/04/19 00:24:17;;;;;;;7.25;5.20;;;;;;;;;;2073253;28;20060;-91
2023/04/19 00:25:17;;;;;;;7.22;5.05;;;;;;;;;;2070816;28;20117;-92
2023/04/19 00:26:18;;;;;;;6.32;4.50;;;;;;;;;;2063507;28;20007;-91
2023/04/19 00:27:18;;;;;;;;;;;;;;;;;;2063219;28;20062;-91
2023/04/19 00:28:18;;;;;;;5.83;4.93;;;;;;;;;;2063428;28;20208;-91
2023/04/19 00:29:19;;;;;;;;;;;;;;;;;;2071949;28;20028;-92
2023/04/19 00:30:19;;;;;;;6.13;5.27;;;;;;;;;;2071349;28;19967;-92
2023/04/19 00:31:20;;;;;;;6.93;5.55;;;;;;;;;;2071705;28;20064;-90
2023/04/19 00:32:20;;;;;;;8.45;5.80;;;;;;;;;;2062589;28;20047;-92
2023/04/19 00:33:20;;;;;;;6.78;4.55;;;;;;;;;;2062772;28;20037;-90
2023/04/19 00:34:21;;;;;;;6.80;4.60;;;;;;;;;;2062671;28;20030;-90
2023/04/19 00:35:21;;;;;;;7.15;4.53;;;;;;;;;;2062976;28;20581;-90
2023/04/19 00:36:22;;;;;;;;;;;;;;;;;;2063455;28;20034;-90
2023/04/19 00:37:22;;;;;;;6.50;4.47;;;;;;;;;;2071688;28;19909;-90
2023/04/19 00:38:23;;;;;;;5.38;3.88;;;;;;;;;;2071696;28;20052;-92
2023/04/19 00:39:24;;;;;;;6.82;4.35;;;;;;;;;;2070802;28;20458;-91
2023/04/19 00:40:24;;;;;;;6.35;4.03;;;;;;;;;;2070964;28;20085;-92
2023/04/19 00:41:25;;;;;;;5.97;4.30;;;;;;;;;;2062690;28;20104;-90
2023/04/19 00:42:25;;;;;;;;;;;;;;;;;;2063373;28;20551;-92
2023/04/19 00:43:25;;;;;;;5.37;3.93;;;;;;;;;;2062748;28;20138;-91
2023/04/19 00:44:26;;;;;;;4.50;3.58;;;;;;;;;;2062582;28;20022;-90
2023/04/19 00:45:27;;;;;;;7.30;4.20;;;;;;;;;;2062581;28;20122;-91
2023/04/19 00:46:27;;;;;;;4.85;3.53;;;;;;;;;;2071675;28;20026;-90
2023/04/19 00:47:29;;;;;;;5.82;3.58;;;;;;;;;;2071415;28;20045;-90
2023/04/19 00:48:31;;;;;;;5.82;4.10;;;;;;;;;;2063301;28;20109;-90
2023/04/19 00:49:31;;;;;;;6.28;3.35;;;;;;;;;;2063071;28;20033;-89
2023/04/19 00:50:32;;;;;;;5.40;3.35;;;;;;;;;;2070951;28;20050;-91
2023/04/19 00:51:33;;;;;;;5.03;3.22;;;;;;;;;;2063293;28;20038;-92
2023/04/19 00:52:34;;;;;;;5.00;3.38;;;;;;;;;;2054880;28;20406;-92
2023/04/19 00:53:34;;;;;;;7.70;3.75;;;;;;;;;;2055084;28;20054;-92
2023/04/19 00:54:36;;;;;;;7.10;3.85;;;;;;;;;;2063472;28;20034;-92
2023/04/19 00:55:39;;;;;;;7.95;3.50;;;;;;;;;;2062974;28;20023;-90
2023/04/19 00:56:40;;;;;;;5.90;3.65;;;;;;;;;;2063683;28;20037;-92
2023/04/19 00:57:41;;;;;;;9.18;3.63;;;;;;;;;;2062955;28;20556;-90
2023/04/19 00:58:41;;;;;;;6.03;3.90;;;;;;;;;;2064517;28;20117;-90
2023/04/19 00:59:42;;;;;;;5.32;3.30;;;;;;;;;;2056907;28;20034;-91
2023/04/19 01:00:43;;;;;;;;;;;;;;;;;;2065471;28;20462;-92
2023/04/19 01:01:44;;;;;;;6.97;3.70;;;;;;;;;;2065096;28;19914;-92
2023/04/19 01:02:45;;;;;;;6.45;4.00;;;;;;;;;;2065096;28;20121;-92
2023/04/19 01:03:46;;;;;;;5.10;3.40;;;;;;;;;;2056980;28;20121;-93
2023/04/19 01:04:46;;;;;;;5.40;3.67;;;;;;;;;;2056757;28;20026;-92
2023/04/19 01:05:47;;;;;;;5.60;3.50;;;;;;;;;;2065342;28;20610;-92
2023/04/19 01:06:50;;;;;;;6.82;4.00;;;;;;;;;;2073187;28;20026;-93
2023/04/19 01:07:51;;;;;;;8.02;4.05;;;;;;;;;;2072921;28;20026;-92
2023/04/19 01:08:52;;;;;;;8.48;4.15;;;;;;;;;;2073275;28;20537;-92
2023/04/19 01:09:52;;;;;;;6.28;4.50;;;;;;;;;;2073703;28;20105;-92
2023/04/19 01:10:53;;;;;;;6.47;4.20;;;;;;;;;;2073493;28;20029;-93
2023/04/19 01:11:54;;;;;;;7.50;4.05;;;;;;;;;;2064796;28;20078;-92
2023/04/19 01:12:55;;;;;;;6.70;4.45;;;;;;;;;;2065237;28;20038;-92
2023/04/19 01:13:57;;;;;;;9.40;5.13;;;;;;;;;;2073726;28;20508;-91
2023/04/19 01:14:57;;;;;;;7.50;4.47;;;;;;;;;;2064455;28;20437;-92
2023/04/19 01:15:59;;;;;;;7.50;4.25;;;;;;;;;;2064981;28;20260;-92
2023/04/19 01:16:59;;;;;;;7.45;5.22;;;;;;;;;;2066334;28;20436;-92
2023/04/19 01:18:00;;;;;;;6.10;4.20;;;;;;;;;;2072906;28;20054;-91
2023/04/19 01:19:01;;;;;;;6.68;4.55;;;;;;;;;;2082630;28;20078;-91
2023/04/19 01:20:05;;;;;;;7.53;4.53;;;;;;;;;;2073759;28;20535;-92
2023/04/19 01:21:07;;;;;;;6.68;4.38;;;;;;;;;;2065375;28;20057;-91
2023/04/19 01:22:08;;;;;;;7.05;4.45;;;;;;;;;;2065516;28;20081;-92
2023/04/19 01:23:10;;;;;;;6.10;4.15;;;;;;;;;;2073680;28;20033;-91
2023/04/19 01:24:11;;;;;;;6.75;4.90;;;;;;;;;;2074070;28;20219;-91
2023/04/19 01:25:13;;;;;;;7.22;4.93;;;;;;;;;;2058315;28;20026;-90
2023/04/19 01:26:13;;;;;;;6.30;4.32;;;;;;;;;;2058307;28;20085;-91
2023/04/19 01:27:16;;;;;;;6.30;4.07;;;;;;;;;;2073165;28;20026;-89
2023/04/19 01:28:17;;;;;;;8.93;4.68;;;;;;;;;;2073322;28;20111;-90
2023/04/19 01:29:17;;;;;;;6.32;4.05;;;;;;;;;;2064797;28;20125;-90
2023/04/19 01:30:18;;;;;;;7.45;4.50;;;;;;;;;;2064794;28;20037;-91
2023/04/19 01:31:19;;;;;;;7.43;4.57;;;;;;;;;;2049164;28;20077;-89
2023/04/19 01:32:20;;;;;;;7.80;4.70;;;;;;;;;;2073419;28;20064;-90
2023/04/19 01:33:21;;;;;;;6.72;4.35;;;;;;;;;;2066588;28;20109;-91
2023/04/19 01:34:24;;;;;;;7.18;5.05;;;;;;;;;;2073653;28;20093;-91
2023/04/19 01:35:25;;;;;;;6.85;4.35;;;;;;;;;;2081552;28;20476;-91
2023/04/19 01:36:26;;;;;;;7.28;4.63;;;;;;;;;;2072823;28;20045;-92
2023/04/19 01:37:27;;;;;;;7.28;4.28;;;;;;;;;;2072586;28;20418;-92
2023/04/19 01:38:27;;;;;;;7.80;4.65;;;;;;;;;;2072718;28;20030;-92
2023/04/19 01:39:28;;;;;;;6.80;4.32;;;;;;;;;;2072696;28;20060;-91
2023/04/19 01:40:28;;;;;;;7.60;4.35;;;;;;;;;;2072531;28;20097;-92
2023/04/19 01:41:28;;;;;;;;;;;;;;;;;;2072884;28;20033;-91
2023/04/19 01:42:29;;;;;;;7.93;5.67;;;;;;;;;;2072547;28;20388;-92
2023/04/19 01:43:29;;;;;;;7.20;5.15;;;;;;;;;;2072637;28;20046;-92
2023/04/19 01:44:30;;;;;;;7.38;4.85;;;;;;;;;;2081471;28;20437;-92
2023/04/19 01:45:32;;;;;;;;;;;;;;;;;;2073241;28;20109;-92
2023/04/19 01:46:37;;;;;;;6.85;4.30;;;;;;;;;;2072742;28;20055;-92
2023/04/19 01:47:38;;;;;;;6.90;4.88;;;;;;;;;;2064011;28;20031;-92
2023/04/19 01:48:38;;;;;;;8.10;6.10;;;;;;;;;;2056604;28;20557;-91
2023/04/19 01:49:38;;;;;;;7.22;5.15;;;;;;;;;;2071899;28;20501;-91
2023/04/19 01:50:39;;;;;;;;;;;;;;;;;;2081230;28;20028;-92
2023/04/19 01:51:39;;;;;;;7.40;4.53;;;;;;;;;;2081537;28;20293;-91
2023/04/19 01:52:40;;;;;;;7.07;5.15;;;;;;;;;;2080995;28;20116;-94
2023/04/19 01:53:40;;;;;;;8.27;4.88;;;;;;;;;;2072305;28;20454;-92
2023/04/19 01:54:41;;;;;;;8.30;5.32;;;;;;;;;;2072343;28;20091;-93
2023/04/19 01:55:42;;;;;;;8.35;5.18;;;;;;;;;;2072515;28;20026;-92
2023/04/19 01:56:44;;;;;;;9.70;5.93;;;;;;;;;;2073071;28;20029;-92
2023/04/19 01:57:45;;;;;;;8.45;5.80;;;;;;;;;;2065036;28;20088;-92
2023/04/19 01:58:45;;;;;;;8.73;5.25;;;;;;;;;;2075968;28;20117;-91
2023/04/19 01:59:47;;;;;;;9.90;5.60;;;;;;;;;;2077564;28;20037;-91
2023/04/19 02:00:47;;;;;;;9.40;5.68;;;;;;;;;;2068687;28;20014;-91
2023/04/19 02:01:48;;;;;;;8.73;5.35;;;;;;;;;;2072471;28;20477;-90
2023/04/19 02:02:49;;;;;;;8.45;5.38;;;;;;;;;;2081225;28;20040;-92
2023/04/19 02:03:50;;;;;;;8.23;5.35;;;;;;;;;;2072469;28;20050;-93
2023/04/19 02:04:53;;;;;;;8.82;6.00;;;;;;;;;;2072161;28;20032;-92
2023/04/19 02:05:53;;;;;;;8.07;5.05;;;;;;;;;;2072234;28;20026;-92
2023/04/19 02:06:54;;;;;;;9.30;5.65;;;;;;;;;;2073130;28;20052;-92
2023/04/19 02:07:55;;;;;;;9.38;5.57;;;;;;;;;;2072952;28;20029;-92
2023/04/19 02:08:55;;;;;;;8.52;5.57;;;;;;;;;;2064267;28;20034;-93
2023/04/19 02:09:58;;;;;;;7.80;5.78;;;;;;;;;;2074902;28;20037;-92
2023/04/19 02:10:58;;;;;;;12.02;6.68;;;;;;;;;;2087432;28;20044;-91
2023/04/19 02:11:59;;;;;;;10.85;6.45;;;;;;;;;;2084703;28;20034;-92
2023/04/19 02:12:59;;;;;;;;;;;;;;;;;;2080617;28;20029;-92
2023/04/19 02:14:00;;;;;;;12.27;6.73;;;;;;;;;;2072400;28;19909;-92
2023/04/19 02:15:03;;;;;;;10.55;6.47;;;;;;;;;;2072062;28;20145;-91
2023/04/19 02:16:04;;;;;;;10.90;6.60;;;;;;;;;;2071962;28;20022;-91
2023/04/19 02:17:05;;;;;;;10.57;6.43;;;;;;;;;;2072507;28;20014;-92
2023/04/19 02:18:05;;;;;;;11.50;6.93;;;;;;;;;;2072496;28;20067;-92
2023/04/19 02:19:06;;;;;;;11.77;7.28;;;;;;;;;;2072323;28;20021;-91
2023/04/19 02:20:08;;;;;;;12.23;7.28;;;;;;;;;;2072449;28;20013;-92
2023/04/19 02:21:09;;;;;;;13.50;7.30;;;;;;;;;;2064113;28;20011;-92
2023/04/19 02:22:10;;;;;;;12.23;7.03;;;;;;;;;;2072256;28;20033;-92
2023/04/19 02:23:12;;;;;;;14.23;7.63;;;;;;;;;;2080370;28;20018;-91
2023/04/19 02:24:12;;;;;;;14.63;8.18;;;;;;;;;;2071845;28;20033;-89
2023/04/19 02:25:14;;;;;;;13.95;8.15;;;;;;;;;;2071613;28;20097;-90
2023/04/19 02:26:14;;;;;;;17.25;9.02;;;;;;;;;;2080312;28;20022;-90
2023/04/19 02:27:15;;;;;;;15.52;8.13;;;;;;;;;;2080476;28;20018;-90
2023/04/19 02:28:16;;;;;;;18.23;8.82;;;;;;;;;;2071115;28;20546;-90
2023/04/19 02:29:18;;;;;;;16.20;8.65;;;;;;;;;;1710454;28;10242931;-90
2023/04/19 02:30:18;;;;;;;20.17;8.82;;;;;;;;;;2063280;28;20018;-90
2023/04/19 02:31:19;;;;;;;16.05;8.25;;;;;;;;;;2070559;28;20094;-89
2023/04/19 02:32:19;;;;;;;;;;;;;;;;;;2073936;28;20014;-90
2023/04/19 02:33:21;;;;;;;14.13;8.13;;;;;;;;;;2073904;28;19969;-90
2023/04/19 02:34:21;;;;;;;15.57;8.80;;;;;;;;;;2080048;28;20053;-89
2023/04/19 02:35:22;;;;;;;16.63;9.00;;;;;;;;;;2089915;28;20073;-88
2023/04/19 02:36:22;;;;;;;13.43;7.82;;;;;;;;;;2078524;28;20049;-89
2023/04/19 02:37:23;;;;;;;16.23;8.18;;;;;;;;;;2075759;28;20022;-89
2023/04/19 02:38:23;;;;;;;12.82;7.80;;;;;;;;;;2079541;28;20021;-90
2023/04/19 02:39:23;;;;;;;15.63;7.90;;;;;;;;;;2080254;28;20037;-90
2023/04/19 02:40:25;;;;;;;13.88;7.65;;;;;;;;;;2071105;28;20022;-90
2023/04/19 02:41:26;;;;;;;13.43;7.57;;;;;;;;;;2071263;28;20026;-90
2023/04/19 02:42:26;;;;;;;12.57;7.22;;;;;;;;;;2071217;28;20083;-90
2023/04/19 02:43:26;;;;;;;12.57;7.22;;;;;;;;;;2063372;28;20362;-90
2023/04/19 02:44:27;;;;;;;;;;;;;;;;;;2063759;28;20580;-90
2023/04/19 02:45:28;;;;;;;17.33;8.37;;;;;;;;;;2071099;28;19910;-90
2023/04/19 02:46:29;;;;;;;14.88;7.72;;;;;;;;;;2080026;28;20109;-90
2023/04/19 02:47:29;;;;;;;12.55;7.32;;;;;;;;;;2071121;28;20544;-90
2023/04/19 02:48:31;;;;;;;11.43;7.15;;;;;;;;;;2071433;28;20053;-90
2023/04/19 02:49:35;;;;;;;11.32;6.72;;;;;;;;;;2080037;28;20060;-88
2023/04/19 02:50:37;;;;;;;10.70;6.75;;;;;;;;;;2081149;28;20022;-89
2023/04/19 02:51:37;;;;;;;10.52;6.90;;;;;;;;;;2082165;28;20187;-89
2023/04/19 02:52:38;;;;;;;10.88;6.30;;;;;;;;;;2090375;28;20013;-89
2023/04/19 02:53:38;;;;;;;;;;;;;;;;;;2090450;28;20017;-90
2023/04/19 02:54:39;;;;;;;10.20;6.43;;;;;;;;;;2090403;28;19937;-90
2023/04/19 02:55:39;;;;;;;8.98;5.70;;;;;;;;;;2077967;28;20068;-89
2023/04/19 02:56:40;;;;;;;10.73;6.65;;;;;;;;;;2063442;28;20042;-88
2023/04/19 02:57:40;;;;;;;12.60;6.20;;;;;;;;;;2071047;28;20481;-88
2023/04/19 02:58:41;;;;;;;12.07;6.75;;;;;;;;;;2079490;28;20120;-90
2023/04/19 02:59:41;;;;;;;8.95;5.55;;;;;;;;;;2079192;28;20022;-90
2023/04/19 03:00:41;;;;;;;8.95;5.70;;;;;;;;;;2079919;28;20021;-90
2023/04/19 03:01:43;;;;;;;8.43;5.78;;;;;;;;;;2070484;28;20046;-89
2023/04/19 03:02:43;;;;;;;8.05;5.57;;;;;;;;;;2072123;28;20044;-90
2023/04/19 03:03:44;;;;;;;8.82;5.60;;;;;;;;;;2076100;28;20022;-88
2023/04/19 03:04:46;;;;;;;7.28;5.28;;;;;;;;;;2075132;28;20176;-88
2023/04/19 03:05:46;;;;;;;6.63;4.60;;;;;;;;;;2070871;28;20036;-88
2023/04/19 03:06:46;;;;;;;9.05;5.63;;;;;;;;;;2062605;28;20084;-90
2023/04/19 03:07:47;;;;;;;6.88;5.28;;;;;;;;;;2070731;28;20049;-89
2023/04/19 03:08:47;;;;;;;8.32;5.50;;;;;;;;;;2079574;28;20026;-88
2023/04/19 03:09:48;;;;;;;8.23;5.80;;;;;;;;;;2079378;28;20021;-90
2023/04/19 03:10:48;;;;;;;8.40;5.63;;;;;;;;;;2079467;28;20079;-90
2023/04/19 03:11:49;;;;;;;7.15;5.47;;;;;;;;;;2070386;28;20495;-90
2023/04/19 03:12:49;;;;;;;7.45;4.80;;;;;;;;;;2062257;28;20434;-91
2023/04/19 03:13:49;;;;;;;7.13;4.97;;;;;;;;;;2070484;28;20030;-89
2023/04/19 03:14:50;;;;;;;8.25;5.03;;;;;;;;;;2079409;28;20021;-89
2023/04/19 03:15:50;;;;;;;6.50;4.75;;;;;;;;;;2079538;28;20049;-90
2023/04/19 03:16:51;;;;;;;7.70;4.90;;;;;;;;;;2079324;28;20029;-90
2023/04/19 03:17:51;;;;;;;;;;;;;;;;;;2079632;28;20477;-89
2023/04/19 03:18:52;;;;;;;8.03;5.43;;;;;;;;;;2079526;28;19924;-90
2023/04/19 03:19:52;;;;;;;7.43;5.28;;;;;;;;;;2070465;28;20128;-89
2023/04/19 03:20:55;;;;;;;7.28;5.05;;;;;;;;;;2062256;28;20038;-88
2023/04/19 03:21:56;;;;;;;9.43;5.40;;;;;;;;;;2062272;28;20038;-90
2023/04/19 03:22:56;;;;;;;7.97;5.10;;;;;;;;;;2070406;28;20037;-88
2023/04/19 03:23:56;;;;;;;;;;;;;;;;;;2078743;28;20036;-89
2023/04/19 03:24:57;;;;;;;8.07;5.93;;;;;;;;;;2070171;28;19909;-87
2023/04/19 03:25:57;;;;;;;8.98;5.35;;;;;;;;;;2070244;28;20097;-87
2023/04/19 03:26:58;;;;;;;;;;;;;;;;;;2070490;28;20032;-87
2023/04/19 03:27:58;;;;;;;7.87;4.97;;;;;;;;;;2070350;28;19920;-87
2023/04/19 03:28:58;;;;;;;8.10;5.30;;;;;;;;;;2079173;28;20100;-89
2023/04/19 03:29:59;;;;;;;;;;;;;;;;;;2079602;28;20022;-88
2023/04/19 03:30:59;;;;;;;6.50;4.83;;;;;;;;;;2079192;28;20008;-88
2023/04/19 03:32:00;;;;;;;;;;;;;;;;;;2079409;28;20037;-88
2023/04/19 03:33:00;;;;;;;7.50;5.80;;;;;;;;;;2079006;28;19955;-88
2023/04/19 03:34:01;;;;;;;7.50;5.30;;;;;;;;;;2082615;28;20039;-89
2023/04/19 03:35:01;;;;;;;8.80;5.40;;;;;;;;;;2079156;28;20373;-89
2023/04/19 03:36:02;;;;;;;9.57;5.70;;;;;;;;;;2070039;28;20568;-88
2023/04/19 03:37:03;;;;;;;8.02;5.30;;;;;;;;;;2062209;28;20108;-89
2023/04/19 03:38:04;;;;;;;8.20;5.20;;;;;;;;;;2070387;28;20401;-88
2023/04/19 03:39:04;;;;;;;7.75;5.40;;;;;;;;;;2070433;28;20048;-88
2023/04/19 03:40:05;;;;;;;7.25;5.55;;;;;;;;;;2070746;28;20044;-91
2023/04/19 03:41:25;;;;;;;7.18;5.47;;;;;;;;;;2080074;28;20013;-91
2023/04/19 03:42:26;;;;;;;7.63;5.35;;;;;;;;;;2070625;28;20520;-89
2023/04/19 03:43:26;;;;;;;9.57;6.07;;;;;;;;;;2070361;28;20055;-89
2023/04/19 03:44:26;;;;;;;8.50;5.75;;;;;;;;;;2079050;28;20059;-89
2023/04/19 03:45:27;;;;;;;8.77;5.30;;;;;;;;;;2070205;28;20085;-89
2023/04/19 03:46:30;;;;;;;9.38;5.65;;;;;;;;;;2070165;28;20036;-89
2023/04/19 03:47:31;;;;;;;10.32;6.25;;;;;;;;;;2070720;28;20022;-89
2023/04/19 03:48:31;;;;;;;8.25;5.70;;;;;;;;;;2079217;28;20025;-89
2023/04/19 03:49:32;;;;;;;;;;;;;;;;;;2070976;28;20075;-89
2023/04/19 03:50:32;;;;;;;9.67;6.20;;;;;;;;;;2070386;28;19913;-88
2023/04/19 03:51:32;;;;;;;;;;;;;;;;;;2078900;28;20029;-88
2023/04/19 03:52:33;;;;;;;9.77;6.27;;;;;;;;;;2079286;28;19909;-88
2023/04/19 03:53:34;;;;;;;9.20;5.35;;;;;;;;;;2063604;28;20026;-88
2023/04/19 03:54:34;;;;;;;11.25;7.10;;;;;;;;;;2062531;28;20084;-89
2023/04/19 03:55:35;;;;;;;9.70;6.57;;;;;;;;;;2070935;28;20068;-89
2023/04/19 03:56:35;;;;;;;9.05;6.20;;;;;;;;;;2083180;28;20518;-88
2023/04/19 03:57:36;;;;;;;10.00;6.03;;;;;;;;;;2083454;28;20022;-89
2023/04/19 03:58:36;;;;;;;9.63;6.55;;;;;;;;;;2070763;28;20018;-89
2023/04/19 03:59:37;;;;;;;8.82;6.63;;;;;;;;;;2062311;28;20386;-89
2023/04/19 04:00:37;;;;;;;11.68;7.20;;;;;;;;;;2070320;28;20281;-89
2023/04/19 04:01:40;;;;;;;;;;;;;;;;;;2070950;28;20157;-90
2023/04/19 04:02:41;;;;;;;10.20;6.82;;;;;;;;;;2070274;28;19953;-90
2023/04/19 04:03:41;;;;;;;15.32;7.28;;;;;;;;;;2070898;28;20030;-90
2023/04/19 04:04:41;;;;;;;;;;;;;;;;;;2071045;28;20056;-89
2023/04/19 04:05:42;;;;;;;21.80;12.60;;;;;;;;;;2061879;28;20005;-91
2023/04/19 04:06:43;;;;;;;20.58;11.05;;;;;;;;;;2069769;28;20057;-90
2023/04/19 04:07:44;;;;;;;22.85;11.80;;;;;;;;;;2069991;28;20026;-93
2023/04/19 04:08:45;;;;;;;17.00;10.45;;;;;;;;;;2079026;28;20428;-89
2023/04/19 04:09:47;;;;;;;13.68;7.25;;;;;;;;;;2078367;28;20089;-89
2023/04/19 04:10:47;;;;;;;13.88;7.68;;;;;;;;;;2069974;28;20014;-89
2023/04/19 04:11:48;;;;;;;14.38;7.72;;;;;;;;;;2070381;28;20500;-90
2023/04/19 04:12:48;;;;;;;15.25;9.23;;;;;;;;;;2070190;28;20068;-90
2023/04/19 04:13:49;;;;;;;12.88;7.78;;;;;;;;;;2070263;28;20491;-89
2023/04/19 04:14:49;;;;;;;;;;;;;;;;;;2079646;28;20040;-89
2023/04/19 04:15:50;;;;;;;11.90;7.13;;;;;;;;;;2079372;28;20014;-89
2023/04/19 04:16:50;;;;;;;13.43;7.80;;;;;;;;;;2079398;28;20030;-89
2023/04/19 04:17:50;;;;;;;14.13;9.15;;;;;;;;;;2079690;28;20100;-90
2023/04/19 04:18:51;;;;;;;12.48;7.45;;;;;;;;;;2079578;28;20398;-90
2023/04/19 04:19:53;;;;;;;14.80;7.93;;;;;;;;;;2079300;28;20512;-89
2023/04/19 04:20:54;;;;;;;13.93;7.95;;;;;;;;;;2079048;28;20025;-88
2023/04/19 04:21:54;;;;;;;14.45;9.30;;;;;;;;;;2070280;28;20018;-90
2023/04/19 04:22:55;;;;;;;16.83;8.98;;;;;;;;;;2070397;28;20101;-90
2023/04/19 04:23:55;;;;;;;;;;;;;;;;;;2079895;28;20021;-91
2023/04/19 04:24:57;;;;;;;15.27;9.33;;;;;;;;;;2079086;28;19928;-91
2023/04/19 04:26:01;;;;;;;16.30;9.20;;;;;;;;;;2079587;28;20089;-91
2023/04/19 04:27:02;;;;;;;14.63;8.40;;;;;;;;;;2070385;28;20441;-91
2023/04/19 04:28:03;;;;;;;18.52;10.10;;;;;;;;;;2062163;28;20022;-91
2023/04/19 04:29:04;;;;;;;17.25;10.40;;;;;;;;;;2070688;28;20078;-90
2023/04/19 04:30:05;;;;;;;19.33;10.82;;;;;;;;;;2079262;28;20053;-89
2023/04/19 04:31:06;;;;;;;16.52;10.30;;;;;;;;;;2078800;28;20064;-90
2023/04/19 04:32:09;;;;;;;18.58;10.63;;;;;;;;;;2079072;28;20025;-90
2023/04/19 04:33:10;;;;;;;17.67;9.95;;;;;;;;;;2079015;28;20017;-90
2023/04/19 04:34:11;;;;;;;17.80;10.57;;;;;;;;;;2070861;28;20022;-90
2023/04/19 04:35:11;;;;;;;18.70;11.27;;;;;;;;;;2070603;28;20020;-91
2023/04/19 04:36:12;;;;;;;15.23;9.85;;;;;;;;;;2070897;28;20021;-90
2023/04/19 04:37:13;;;;;;;18.25;10.82;;;;;;;;;;2070285;28;20084;-90
2023/04/19 04:38:14;;;;;;;21.38;10.98;;;;;;;;;;2070296;28;20127;-90
2023/04/19 04:39:15;;;;;;;20.40;11.02;;;;;;;;;;2070882;28;20018;-90
2023/04/19 04:40:15;;;;;;;20.23;11.68;;;;;;;;;;2079492;28;20021;-90
2023/04/19 04:41:16;;;;;;;20.60;11.30;;;;;;;;;;2079181;28;20018;-90
2023/04/19 04:42:17;;;;;;;18.83;10.82;;;;;;;;;;2079204;28;20014;-90
2023/04/19 04:43:17;;;;;;;19.10;11.70;;;;;;;;;;2070538;28;20025;-90
2023/04/19 04:44:19;;;;;;;;;;;;;;;;;;2070921;28;20552;-90
2023/04/19 04:45:20;;;;;;;20.83;11.57;;;;;;;;;;2069878;28;19910;-90
2023/04/19 04:46:20;;;;;;;18.58;11.60;;;;;;;;;;2070144;28;20030;-89
2023/04/19 04:47:20;;;;;;;18.80;11.77;;;;;;;;;;2078462;28;20047;-90
2023/04/19 04:48:21;;;;;;;;;;;;;;;;;;2071858;28;20409;-90
2023/04/19 04:49:21;;;;;;;18.60;11.33;;;;;;;;;;2076514;28;20032;-88
2023/04/19 04:50:22;;;;;;;20.48;12.13;;;;;;;;;;2075246;28;20163;-91
2023/04/19 04:51:22;;;;;;;18.85;11.25;;;;;;;;;;2071360;28;20022;-90
2023/04/19 04:52:23;;;;;;;20.05;11.65;;;;;;;;;;2079509;28;20097;-90
2023/04/19 04:53:26;;;;;;;;;;;;;;;;;;2079590;28;20021;-90
2023/04/19 04:54:26;;;;;;;18.23;10.23;;;;;;;;;;2078192;28;19956;-89
2023/04/19 04:55:27;;;;;;;21.70;11.93;;;;;;;;;;2078470;28;20025;-91
2023/04/19 04:56:27;;;;;;;17.65;11.00;;;;;;;;;;2079298;28;20087;-90
2023/04/19 04:57:28;;;;;;;16.27;10.70;;;;;;;;;;2070248;28;20105;-90
2023/04/19 04:58:28;;;;;;;18.30;10.98;;;;;;;;;;2070129;28;20096;-90
2023/04/19 04:59:28;;;;;;;;;;;;;;;;;;2079387;28;20029;-89
2023/04/19 05:00:29;;;;;;;14.60;10.17;;;;;;;;;;2079063;28;20145;-90
2023/04/19 05:01:29;;;;;;;;;;;;;;;;;;2079718;28;20032;-90
2023/04/19 05:02:31;;;;;;;18.00;10.30;;;;;;;;;;2079585;28;19999;-89
2023/04/19 05:03:32;;;;;;;17.70;9.80;;;;;;;;;;2079520;28;20369;-89
2023/04/19 05:04:32;;;;;;;18.73;10.43;;;;;;;;;;2089186;28;20001;-88
2023/04/19 05:05:32;;;;;;;15.45;9.10;;;;;;;;;;2089095;28;20044;-88
2023/04/19 05:06:33;;;;;;;14.27;8.88;;;;;;;;;;2080960;28;20041;-87
2023/04/19 05:07:33;;;;;;;13.02;8.07;;;;;;;;;;2080210;28;20037;-88
2023/04/19 05:08:34;;;;;;;13.52;8.48;;;;;;;;;;2080731;28;20006;-88
2023/04/19 05:09:34;;;;;;;14.25;9.15;;;;;;;;;;2078772;28;20041;-90
2023/04/19 05:10:34;;;;;;;;;;;;;;;;;;2070912;28;20038;-88
2023/04/19 05:11:35;;;;;;;14.00;8.77;;;;;;;;;;2071826;28;20037;-91
2023/04/19 05:12:36;;;;;;;14.10;8.68;;;;;;;;;;2070298;28;20028;-90
2023/04/19 05:13:37;;;;;;;15.25;8.73;;;;;;;;;;2070345;28;20049;-91
2023/04/19 05:14:37;;;;;;;15.07;9.55;;;;;;;;;;2079681;28;20465;-89
2023/04/19 05:15:38;;;;;;;13.48;8.30;;;;;;;;;;2078920;28;20033;-89
2023/04/19 05:16:39;;;;;;;13.55;7.10;;;;;;;;;;2069846;28;20025;-90
2023/04/19 05:17:41;;;;;;;11.38;7.22;;;;;;;;;;2061656;28;20048;-89
2023/04/19 05:18:42;;;;;;;10.95;7.38;;;;;;;;;;2061776;28;20038;-89
2023/04/19 05:19:42;;;;;;;10.88;7.43;;;;;;;;;;2069990;28;20048;-89
2023/04/19 05:20:43;;;;;;;13.20;8.10;;;;;;;;;;2078740;28;20022;-89
2023/04/19 05:21:47;;;;;;;;;;;;;;;;;;2078089;28;20448;-89
2023/04/19 05:23:10;;;;;;;11.20;6.95;;;;;;;;;;2073577;28;19955;-89
2023/04/19 05:24:10;;;;;;;11.90;7.05;;;;;;;;;;2079898;28;20151;-88
2023/04/19 05:25:11;;;;;;;12.63;7.30;;;;;;;;;;2081559;28;20032;-90
2023/04/19 05:26:16;;;;;;;11.85;6.95;;;;;;;;;;2084191;28;20006;-89
2023/04/19 05:27:40;;;;;;;12.35;6.82;;;;;;;;;;2083729;28;20034;-89
2023/04/19 05:28:52;;;;;;;11.13;6.75;;;;;;;;;;2084911;28;20019;-90
2023/04/19 05:29:53;;;;;;;12.90;7.38;;;;;;;;;;2080686;28;20041;-88
2023/04/19 05:30:53;;;;;;;11.88;6.82;;;;;;;;;;2069069;28;20045;-90
2023/04/19 05:31:56;;;;;;;11.18;8.35;;;;;;;;;;2068617;28;20531;-89
2023/04/19 05:32:58;;;;;;;13.70;7.78;;;;;;;;;;2071961;28;20053;-89
2023/04/19 05:33:59;;;;;;;13.05;8.30;;;;;;;;;;2068513;28;20028;-88
2023/04/19 05:35:09;;;;;;;8.80;5.90;;;;;;;;;;2065323;28;20524;-90
2023/04/19 05:36:10;;;;;;;9.88;6.07;;;;;;;;;;2076204;28;20053;-90
2023/04/19 05:37:10;;;;;;;10.98;6.00;;;;;;;;;;2074372;28;20025;-89
2023/04/19 05:38:11;;;;;;;11.85;6.07;;;;;;;;;;2072759;28;20049;-90
2023/04/19 05:39:12;;;;;;;10.65;5.90;;;;;;;;;;2069396;28;20036;-89
2023/04/19 05:40:12;;;;;;;9.68;6.40;;;;;;;;;;2062110;28;20417;-89
2023/04/19 05:41:14;;;;;;;11.07;6.72;;;;;;;;;;2062655;28;20077;-89
2023/04/19 05:42:14;;;;;;;8.35;5.78;;;;;;;;;;2065511;28;20011;-87
2023/04/19 05:43:15;;;;;;;8.15;5.55;;;;;;;;;;2063403;28;20060;-90
2023/04/19 05:44:15;;;;;;;8.93;5.55;;;;;;;;;;2071029;28;20033;-88
2023/04/19 05:45:17;;;;;;;9.35;5.70;;;;;;;;;;2072087;28;20036;-89
2023/04/19 05:46:18;;;;;;;9.82;6.03;;;;;;;;;;2063810;28;20019;-90
2023/04/19 05:47:30;;;;;;;9.27;5.90;;;;;;;;;;2055647;28;20034;-89
2023/04/19 05:48:30;;;;;;;9.13;5.55;;;;;;;;;;2058114;28;20043;-90
2023/04/19 05:49:31;;;;;;;8.00;5.45;;;;;;;;;;2065012;28;20504;-91
2023/04/19 05:50:39;;;;;;;9.82;5.55;;;;;;;;;;2064586;28;20687;-90
2023/04/19 05:51:49;;;;;;;8.48;5.20;;;;;;;;;;2065857;28;20117;-91
2023/04/19 05:52:57;;;;;;;9.20;5.65;;;;;;;;;;2057916;28;20027;-90
2023/04/19 05:54:02;;;;;;;10.15;5.78;;;;;;;;;;2057555;28;20034;-90
2023/04/19 05:55:02;;;;;;;8.98;5.50;;;;;;;;;;2056931;28;20019;-89
2023/04/19 05:56:03;;;;;;;9.02;5.32;;;;;;;;;;2064370;28;20057;-89
2023/04/19 05:57:04;;;;;;;8.95;5.28;;;;;;;;;;2073225;28;20052;-89
2023/04/19 05:58:04;;;;;;;10.45;5.85;;;;;;;;;;2073182;28;20022;-90
2023/04/19 05:59:05;;;;;;;11.43;6.97;;;;;;;;;;2064515;28;20038;-90
2023/04/19 06:00:08;;;;;;;;;;;;;;;;;;2065064;28;20041;-90
2023/04/19 06:01:09;;;;;;;8.23;5.20;;;;;;;;;;2073251;28;19909;-89
2023/04/19 06:02:09;;;;;;;7.53;4.85;;;;;;;;;;2073214;28;20171;-90
2023/04/19 06:03:10;;;;;;;9.25;5.15;;;;;;;;;;2073314;28;20092;-91
2023/04/19 06:04:14;;;;;;;7.57;4.78;;;;;;;;;;2073176;28;20033;-89
2023/04/19 06:05:19;;;;;;;7.45;4.88;;;;;;;;;;2077389;28;20056;-91
2023/04/19 06:06:36;;;;;;;9.00;5.57;;;;;;;;;;2081046;28;20171;-91
2023/04/19 06:07:39;;;;;;;8.55;5.45;;;;;;;;;;2078370;28;20095;-90
2023/04/19 06:08:50;;;;;;;8.00;5.80;;;;;;;;;;2078845;28;20025;-91
2023/04/19 06:10:28;;;;;;;11.60;6.50;;;;;;;;;;2070584;28;20034;-88